Time;durP1;ratioP1;P1;durP2;ratioP2;P2;SDS_P1;SDS_P2;PMS_P1;PMS_P2;Temp;Humidity;BMP_temperature;BMP_pressure;BME280_temperature;BME280_humidity;BME280_pressure;Samples;Min_cycle;Max_cycle;Signal;HPM_P1;HPM_P2
2021/09/24 00:01:46;;;;;;;0.00;0.00;;;12.40;99.90;;;;;;4791326;30;20474;-96
2021/09/24 00:04:13;;;;;;;0.00;0.00;;;12.40;99.90;;;;;;4790405;30;20130;-96
2021/09/24 00:06:41;;;;;;;0.00;0.00;;;12.40;99.90;;;;;;4773490;30;20047;-96
2021/09/24 00:09:09;;;;;;;0.00;0.00;;;12.40;99.90;;;;;;4787885;30;20054;-96
2021/09/24 00:11:38;;;;;;;0.00;0.00;;;12.40;99.90;;;;;;4791066;30;20040;-96
2021/09/24 00:14:06;;;;;;;0.00;0.00;;;12.60;99.90;;;;;;4791112;30;20055;-96
2021/09/24 00:16:37;;;;;;;0.00;0.00;;;12.40;99.90;;;;;;4800739;30;20039;-96
2021/09/24 00:19:04;;;;;;;0.00;0.00;;;12.40;99.90;;;;;;4796667;30;20051;-96
2021/09/24 00:21:31;;;;;;;0.00;0.00;;;12.40;99.90;;;;;;4792255;30;20043;-96
2021/09/24 00:23:58;;;;;;;0.08;0.08;;;12.40;99.90;;;;;;4791278;30;20051;-96
2021/09/24 00:26:25;;;;;;;0.00;0.00;;;12.40;99.90;;;;;;4794524;30;20086;-96
2021/09/24 00:28:52;;;;;;;0.03;0.03;;;12.40;99.90;;;;;;4795741;30;20051;-96
2021/09/24 00:31:19;;;;;;;0.10;0.10;;;12.40;99.90;;;;;;4796737;30;20051;-96
2021/09/24 00:33:46;;;;;;;0.10;0.10;;;12.50;99.90;;;;;;4793069;30;20043;-96
2021/09/24 00:36:13;;;;;;;0.00;0.00;;;12.50;99.90;;;;;;4794503;30;20072;-96
2021/09/24 00:38:40;;;;;;;0.00;0.00;;;12.70;99.90;;;;;;4779225;30;20048;-96
2021/09/24 00:41:08;;;;;;;0.00;0.00;;;12.60;99.90;;;;;;4781123;30;20142;-96
2021/09/24 00:43:35;;;;;;;0.00;0.00;;;12.60;99.90;;;;;;4794788;30;20047;-96
2021/09/24 00:46:03;;;;;;;0.00;0.00;;;12.60;99.90;;;;;;4800675;30;20043;-96
2021/09/24 00:48:31;;;;;;;0.00;0.00;;;12.70;99.90;;;;;;4801136;30;20054;-96
2021/09/24 00:50:58;;;;;;;0.00;0.00;;;12.70;99.90;;;;;;4797948;30;20050;-96
2021/09/24 00:53:25;;;;;;;0.00;0.00;;;12.70;99.90;;;;;;4798184;30;20051;-96
2021/09/24 00:55:52;;;;;;;0.00;0.00;;;12.70;99.90;;;;;;4795571;30;20702;-96
2021/09/24 00:58:19;;;;;;;0.00;0.00;;;12.80;99.90;;;;;;4781354;30;20093;-96
2021/09/24 01:00:46;;;;;;;0.00;0.00;;;12.80;99.90;;;;;;4780435;30;20459;-96
2021/09/24 01:03:14;;;;;;;0.00;0.00;;;12.80;99.90;;;;;;4795766;30;20051;-96
2021/09/24 01:05:41;;;;;;;0.08;0.08;;;12.80;99.90;;;;;;4798489;30;20128;-96
2021/09/24 01:08:08;;;;;;;0.00;0.00;;;12.90;99.90;;;;;;4798352;30;20045;-96
2021/09/24 01:10:35;;;;;;;0.00;0.00;;;12.90;99.90;;;;;;4798102;30;20050;-96
2021/09/24 01:13:02;;;;;;;0.00;0.00;;;13.00;99.90;;;;;;4796457;30;20468;-96
2021/09/24 01:15:29;;;;;;;0.00;0.00;;;13.00;99.90;;;;;;4780087;30;20464;-96
2021/09/24 01:17:56;;;;;;;0.00;0.00;;;13.00;99.90;;;;;;4795377;30;20488;-96
2021/09/24 01:20:23;;;;;;;0.00;0.00;;;13.00;99.90;;;;;;4794171;30;20051;-96
2021/09/24 01:22:51;;;;;;;0.00;0.00;;;13.00;99.90;;;;;;4794887;30;20044;-96
2021/09/24 01:25:24;;;;;;;0.00;0.00;;;13.10;99.90;;;;;;4802151;30;20043;-96
2021/09/24 01:27:58;;;;;;;0.00;0.00;;;13.10;99.90;;;;;;4808586;29;20043;-96
2021/09/24 01:30:25;;;;;;;0.00;0.00;;;13.10;99.90;;;;;;4785440;30;20051;-96
2021/09/24 01:32:52;;;;;;;0.00;0.00;;;13.10;99.90;;;;;;4799549;30;20050;-96
2021/09/24 01:35:19;;;;;;;0.00;0.00;;;13.10;99.90;;;;;;4797435;30;20138;-96
2021/09/24 01:37:48;;;;;;;0.13;0.03;;;13.20;99.90;;;;;;4784623;30;20067;-96
2021/09/24 01:40:20;;;;;;;0.00;0.00;;;13.10;99.90;;;;;;4800065;30;20107;-96
2021/09/24 01:42:52;;;;;;;0.00;0.00;;;13.20;99.90;;;;;;4800143;30;20416;-96
2021/09/24 01:45:28;;;;;;;0.00;0.00;;;13.20;99.90;;;;;;4806344;30;20071;-96
2021/09/24 01:48:28;;;;;;;0.00;0.00;;;13.20;99.90;;;;;;4795376;30;20048;-96
2021/09/24 01:51:27;;;;;;;0.03;0.03;;;13.20;99.90;;;;;;4795401;30;20036;-96
2021/09/24 01:53:59;;;;;;;0.00;0.00;;;13.20;99.90;;;;;;4820456;30;20404;-96
2021/09/24 01:56:30;;;;;;;0.00;0.00;;;13.10;99.90;;;;;;4801555;29;20114;-96
2021/09/24 01:59:00;;;;;;;0.00;0.00;;;13.20;99.90;;;;;;4800062;30;20393;-96
2021/09/24 02:01:33;;;;;;;0.00;0.00;;;13.30;99.90;;;;;;4805050;30;20063;-96
2021/09/24 02:04:05;;;;;;;0.00;0.00;;;13.30;99.90;;;;;;4803729;30;20073;-96
2021/09/24 02:07:21;;;;;;;;;;;;;;;;;;;;;
2021/09/24 02:09:56;;;;;;;0.00;0.00;;;13.30;99.90;;;;;;4770660;30;20095;-96
2021/09/24 02:12:50;;;;;;;0.00;0.00;;;13.30;99.90;;;;;;4769411;30;20060;-96
2021/09/24 02:15:22;;;;;;;0.00;0.00;;;13.40;99.90;;;;;;4774987;30;20090;-96
2021/09/24 02:17:52;;;;;;;0.00;0.00;;;13.50;99.90;;;;;;4785487;30;20109;-96
2021/09/24 02:20:19;;;;;;;0.00;0.00;;;13.40;99.90;;;;;;4798751;30;20051;-96
2021/09/24 02:22:49;;;;;;;0.00;0.00;;;13.40;99.90;;;;;;4797687;30;20044;-96
2021/09/24 02:25:19;;;;;;;0.00;0.00;;;13.20;99.90;;;;;;4799411;30;20078;-96
2021/09/24 02:27:59;;;;;;;0.00;0.00;;;13.40;99.90;;;;;;4803283;30;20058;-96
2021/09/24 02:30:29;;;;;;;0.00;0.00;;;13.40;99.90;;;;;;4801808;30;20086;-96
2021/09/24 02:33:04;;;;;;;0.00;0.00;;;13.40;99.90;;;;;;4804082;30;20048;-97
2021/09/24 02:36:01;;;;;;;0.00;0.00;;;13.40;99.90;;;;;;4778110;30;20056;-96
2021/09/24 02:39:00;;;;;;;0.00;0.00;;;13.40;99.90;;;;;;4772251;30;20055;-96
2021/09/24 02:41:59;;;;;;;0.00;0.00;;;13.40;99.90;;;;;;4778488;30;20052;-96
2021/09/24 02:44:26;;;;;;;0.00;0.00;;;13.50;99.90;;;;;;4741456;30;20044;-96
2021/09/24 02:46:52;;;;;;;0.00;0.00;;;13.30;99.90;;;;;;4740392;30;20090;-96
2021/09/24 02:49:19;;;;;;;0.00;0.00;;;13.50;99.90;;;;;;4742285;30;20423;-96
2021/09/24 02:52:04;;;;;;;0.00;0.00;;;13.50;99.90;;;;;;4745108;30;20067;-96
2021/09/24 02:54:36;;;;;;;0.00;0.00;;;13.50;99.90;;;;;;4748249;30;20047;-96
2021/09/24 02:57:06;;;;;;;0.00;0.00;;;13.30;99.90;;;;;;4744339;30;20048;-96
2021/09/24 03:02:42;;;;;;;0.00;0.00;;;13.40;99.90;;;;;;4755892;30;20092;-96
2021/09/24 03:05:09;;;;;;;0.00;0.00;;;13.40;99.90;;;;;;4776835;30;20611;-96
2021/09/24 03:07:36;;;;;;;0.00;0.00;;;13.50;99.90;;;;;;4760061;30;20044;-96
2021/09/24 03:10:05;;;;;;;0.00;0.00;;;13.40;99.90;;;;;;4782496;30;20052;-96
2021/09/24 03:12:32;;;;;;;0.10;0.10;;;13.40;99.90;;;;;;4790275;30;20087;-96
2021/09/24 03:14:59;;;;;;;0.00;0.00;;;13.40;99.90;;;;;;4794669;30;20056;-96
2021/09/24 03:17:26;;;;;;;0.00;0.00;;;13.40;99.90;;;;;;4797705;30;20572;-96
2021/09/24 03:19:59;;;;;;;0.00;0.00;;;13.50;99.90;;;;;;4803065;30;20512;-96
2021/09/24 03:22:26;;;;;;;0.00;0.00;;;13.60;99.90;;;;;;4797785;30;20108;-96
2021/09/24 03:25:04;;;;;;;0.00;0.00;;;13.50;99.90;;;;;;4795026;30;20055;-96
2021/09/24 03:27:34;;;;;;;0.00;0.00;;;13.50;99.90;;;;;;4795076;30;20480;-96
2021/09/24 03:30:06;;;;;;;0.00;0.00;;;13.50;99.90;;;;;;4794953;30;20082;-96
2021/09/24 03:32:33;;;;;;;0.00;0.00;;;13.50;99.90;;;;;;4796797;30;20063;-96
2021/09/24 03:35:02;;;;;;;0.00;0.00;;;13.50;99.90;;;;;;4793227;30;20044;-96
2021/09/24 03:37:29;;;;;;;0.00;0.00;;;13.60;99.90;;;;;;4791971;30;20130;-96
2021/09/24 03:39:56;;;;;;;0.00;0.00;;;13.60;99.90;;;;;;4792352;30;20040;-96
2021/09/24 03:42:24;;;;;;;0.10;0.10;;;13.60;99.90;;;;;;4790355;30;20051;-96
2021/09/24 03:45:00;;;;;;;0.00;0.00;;;13.60;99.90;;;;;;4792296;30;20139;-96
2021/09/24 03:47:27;;;;;;;0.00;0.00;;;13.60;99.90;;;;;;4792260;30;20130;-96
2021/09/24 03:49:53;;;;;;;0.00;0.00;;;13.90;99.90;;;;;;4790687;30;20116;-96
2021/09/24 03:52:20;;;;;;;0.00;0.00;;;13.60;99.90;;;;;;4791348;30;20043;-96
2021/09/24 03:54:47;;;;;;;0.00;0.00;;;13.60;99.90;;;;;;4791000;30;20048;-96
2021/09/24 03:57:14;;;;;;;0.00;0.00;;;13.60;99.90;;;;;;4775711;30;20050;-96
2021/09/24 03:59:41;;;;;;;0.00;0.00;;;13.60;99.90;;;;;;4791075;30;20138;-96
2021/09/24 04:02:11;;;;;;;0.00;0.00;;;13.70;99.90;;;;;;4794984;30;20056;-96
2021/09/24 04:04:38;;;;;;;0.00;0.00;;;13.70;99.90;;;;;;4792973;30;20054;-96
2021/09/24 04:07:07;;;;;;;0.00;0.00;;;13.70;99.90;;;;;;4792971;30;20135;-96
2021/09/24 04:09:35;;;;;;;0.22;0.08;;;13.70;99.90;;;;;;4778789;30;20097;-96
2021/09/24 04:12:04;;;;;;;0.00;0.00;;;13.70;99.90;;;;;;4791024;30;20043;-96
2021/09/24 04:14:31;;;;;;;0.10;0.08;;;13.70;99.90;;;;;;4793582;30;20058;-96
2021/09/24 04:17:04;;;;;;;0.00;0.00;;;13.80;99.90;;;;;;4781861;30;20051;-96
2021/09/24 04:19:31;;;;;;;0.00;0.00;;;13.70;99.90;;;;;;4798588;29;20086;-96
2021/09/24 04:22:00;;;;;;;0.00;0.00;;;13.60;99.90;;;;;;4801605;30;20077;-96
2021/09/24 04:24:28;;;;;;;0.00;0.00;;;13.80;99.90;;;;;;4805547;30;20134;-96
2021/09/24 04:26:57;;;;;;;0.00;0.00;;;13.80;99.90;;;;;;4789411;30;20081;-96
2021/09/24 04:29:56;;;;;;;0.00;0.00;;;13.90;99.90;;;;;;4806861;30;20047;-96
2021/09/24 04:32:56;;;;;;;0.00;0.00;;;13.50;99.90;;;;;;4817241;30;20080;-96
2021/09/24 04:35:59;;;;;;;0.00;0.00;;;13.70;99.90;;;;;;4822686;30;20081;-96
2021/09/24 04:38:30;;;;;;;0.10;0.10;;;13.90;99.90;;;;;;4810929;30;20058;-96
2021/09/24 04:40:57;;;;;;;0.00;0.00;;;13.80;99.90;;;;;;4801721;30;20052;-97
2021/09/24 04:43:25;;;;;;;0.10;0.10;;;13.90;99.90;;;;;;4809428;30;20108;-96
2021/09/24 04:45:55;;;;;;;0.00;0.00;;;13.80;99.90;;;;;;4824675;30;20051;-96
2021/09/24 04:48:25;;;;;;;0.00;0.00;;;13.80;99.90;;;;;;4810341;30;20076;-96
2021/09/24 04:51:44;;;;;;;0.00;0.00;;;13.90;99.90;;;;;;4812888;29;20404;-96
2021/09/24 05:30:01;;;;;;;0.00;0.00;;;13.90;99.90;;;;;;810050;24;20336;-94
2021/09/24 05:32:40;;;;;;;0.00;0.00;;;13.90;99.90;;;;;;4781541;30;20059;-96
2021/09/24 05:35:08;;;;;;;0.00;0.00;;;13.90;99.90;;;;;;4796147;30;20074;-96
2021/09/24 05:37:36;;;;;;;0.00;0.00;;;13.90;99.90;;;;;;4800168;30;20076;-96
2021/09/24 05:40:04;;;;;;;0.00;0.00;;;13.90;99.90;;;;;;4799065;30;20048;-96
2021/09/24 05:42:37;;;;;;;0.00;0.00;;;13.90;99.90;;;;;;4800752;30;20094;-96
2021/09/24 05:45:25;;;;;;;;;;;;;;;;;;;;;
2021/09/24 05:47:52;;;;;;;0.00;0.00;;;13.90;99.90;;;;;;4812752;30;20052;-96
2021/09/24 05:50:23;;;;;;;0.08;0.08;;;14.00;99.90;;;;;;4787859;30;20074;-96
2021/09/24 06:45:08;;;;;;;0.15;0.08;;;14.40;99.90;;;;;;4789623;30;20086;-96
2021/09/24 06:47:35;;;;;;;0.03;0.00;;;14.40;99.90;;;;;;4763732;30;20065;-96
2021/09/24 06:50:03;;;;;;;0.00;0.00;;;14.50;99.90;;;;;;4764065;30;20453;-96
2021/09/24 06:52:31;;;;;;;0.00;0.00;;;14.50;99.90;;;;;;4782010;30;20111;-96
2021/09/24 06:54:59;;;;;;;0.00;0.00;;;14.50;99.90;;;;;;4781565;30;20042;-96
2021/09/24 06:57:26;;;;;;;0.00;0.00;;;14.30;99.90;;;;;;4782443;30;20101;-96
2021/09/24 06:59:55;;;;;;;0.00;0.00;;;14.60;99.90;;;;;;4787491;30;20043;-96
2021/09/24 07:02:25;;;;;;;0.00;0.00;;;14.60;99.90;;;;;;4786037;30;20054;-96
2021/09/24 07:04:52;;;;;;;0.00;0.00;;;14.70;99.90;;;;;;4778030;30;20044;-96
2021/09/24 07:07:19;;;;;;;0.00;0.00;;;14.70;99.90;;;;;;4763653;30;20050;-96
2021/09/24 07:09:46;;;;;;;0.00;0.00;;;14.80;99.90;;;;;;4779105;30;20051;-96
2021/09/24 07:12:13;;;;;;;0.38;0.13;;;14.80;99.90;;;;;;4779658;30;20058;-96
2021/09/24 07:20:56;;;;;;;0.00;0.00;;;14.90;99.90;;;;;;5015404;24;20059;-96
2021/09/24 08:02:48;;;;;;;0.05;0.05;;;15.60;99.90;;;;;;4802443;30;20060;-96
2021/09/24 08:05:16;;;;;;;0.03;0.03;;;15.60;99.90;;;;;;4773729;30;20094;-96
2021/09/24 08:07:43;;;;;;;0.08;0.08;;;15.60;99.90;;;;;;4773637;30;20512;-95
2021/09/24 08:10:10;;;;;;;0.30;0.15;;;15.70;99.90;;;;;;4773874;30;20040;-95
2021/09/24 08:12:40;;;;;;;0.10;0.05;;;15.70;99.90;;;;;;4773848;30;20043;-95
2021/09/24 08:15:08;;;;;;;0.00;0.00;;;15.70;99.90;;;;;;4774492;30;20497;-95
2021/09/24 08:17:34;;;;;;;0.93;0.22;;;15.80;99.90;;;;;;4774488;30;20055;-96
2021/09/24 08:20:03;;;;;;;0.00;0.00;;;15.80;99.90;;;;;;4775510;30;20151;-94
2021/09/24 08:22:32;;;;;;;0.00;0.00;;;15.80;99.90;;;;;;4776216;30;20094;-95
2021/09/24 08:24:59;;;;;;;0.13;0.08;;;15.90;99.90;;;;;;4776413;30;20055;-96
2021/09/24 08:27:26;;;;;;;0.22;0.10;;;15.90;99.90;;;;;;4776936;30;20048;-95
2021/09/24 08:29:52;;;;;;;0.10;0.10;;;15.90;99.90;;;;;;4775812;30;20071;-94
2021/09/24 08:32:19;;;;;;;0.03;0.00;;;15.80;99.90;;;;;;4774300;30;20051;-92
2021/09/24 08:34:46;;;;;;;0.00;0.00;;;15.90;99.90;;;;;;4776668;30;20148;-95
2021/09/24 08:37:13;;;;;;;0.10;0.10;;;15.80;99.90;;;;;;4777269;30;20058;-94
2021/09/24 08:39:40;;;;;;;0.10;0.10;;;15.90;99.90;;;;;;4760929;30;20047;-95
2021/09/24 08:42:07;;;;;;;0.20;0.20;;;15.90;99.90;;;;;;4776701;30;20060;-95
2021/09/24 08:44:34;;;;;;;0.60;0.20;;;15.90;99.90;;;;;;4776131;30;20501;-93
2021/09/24 08:47:02;;;;;;;0.63;0.20;;;15.90;99.90;;;;;;4793267;30;20063;-96
2021/09/24 08:49:29;;;;;;;0.00;0.00;;;15.90;99.90;;;;;;4760345;30;20047;-96
2021/09/24 08:51:56;;;;;;;0.10;0.10;;;15.90;99.90;;;;;;4789192;30;20073;-95
2021/09/24 08:54:23;;;;;;;0.10;0.10;;;15.90;99.90;;;;;;4778481;30;20047;-95
2021/09/24 08:56:50;;;;;;;0.03;0.03;;;16.00;99.90;;;;;;4776574;30;20053;-94
2021/09/24 08:59:17;;;;;;;0.00;0.00;;;16.00;99.90;;;;;;4777122;30;20047;-94
2021/09/24 09:02:00;;;;;;;0.10;0.10;;;16.00;99.90;;;;;;4790359;30;20088;-96
2021/09/24 09:04:38;;;;;;;0.30;0.10;;;16.00;99.90;;;;;;4791960;30;20047;-96
2021/09/24 09:07:11;;;;;;;0.10;0.10;;;16.00;99.90;;;;;;4792541;30;20043;-94
2021/09/24 09:09:46;;;;;;;0.17;0.08;;;16.00;99.90;;;;;;4794064;30;20050;-93
2021/09/24 09:12:15;;;;;;;0.10;0.05;;;16.10;99.90;;;;;;4794668;30;20039;-95
2021/09/24 09:15:04;;;;;;;0.10;0.10;;;16.10;99.90;;;;;;4794808;30;20053;-96
2021/09/24 09:17:35;;;;;;;0.10;0.10;;;16.10;99.90;;;;;;4794034;30;20047;-93
2021/09/24 09:20:32;;;;;;;0.35;0.20;;;16.10;99.90;;;;;;4794308;30;20050;-94
2021/09/24 09:22:58;;;;;;;;;;;16.20;99.90;;;;;;4794483;30;20054;-93
2021/09/24 09:25:41;;;;;;;0.00;0.00;;;16.30;99.90;;;;;;4795427;30;19925;-96
2021/09/24 09:28:24;;;;;;;0.20;0.20;;;16.30;99.90;;;;;;4794591;30;20048;-93
2021/09/24 09:30:51;;;;;;;0.00;0.00;;;16.30;99.90;;;;;;4794073;30;20054;-95
2021/09/24 09:33:20;;;;;;;0.13;0.13;;;16.30;99.90;;;;;;4782880;30;20044;-96
2021/09/24 09:35:55;;;;;;;0.68;0.22;;;16.40;99.90;;;;;;4794607;30;20152;-93
2021/09/24 09:38:25;;;;;;;0.20;0.17;;;16.40;99.90;;;;;;4793670;30;20050;-90
2021/09/24 09:41:08;;;;;;;0.28;0.10;;;16.40;99.90;;;;;;4792806;30;20065;-91
2021/09/24 09:43:38;;;;;;;0.30;0.20;;;16.50;99.90;;;;;;4792976;30;20457;-90
2021/09/24 09:46:09;;;;;;;0.43;0.20;;;16.50;99.90;;;;;;4792610;30;20044;-88
2021/09/24 09:48:36;;;;;;;0.20;0.10;;;16.50;99.90;;;;;;4792965;30;20130;-91
2021/09/24 09:51:03;;;;;;;0.05;0.05;;;16.50;99.90;;;;;;4793063;30;20171;-89
2021/09/24 09:53:30;;;;;;;0.10;0.10;;;16.60;99.90;;;;;;4793156;30;20051;-92
2021/09/24 09:56:00;;;;;;;0.10;0.10;;;16.60;99.90;;;;;;4792638;30;20051;-91
2021/09/24 09:58:29;;;;;;;0.75;0.17;;;16.70;99.90;;;;;;4793107;30;20142;-91
2021/09/24 10:01:13;;;;;;;0.10;0.10;;;16.60;99.90;;;;;;4792623;30;20063;-90
2021/09/24 10:03:51;;;;;;;0.15;0.10;;;16.70;99.90;;;;;;4806720;30;20055;-89
2021/09/24 10:06:26;;;;;;;0.00;0.00;;;16.70;99.90;;;;;;4792059;30;20047;-91
2021/09/24 10:09:00;;;;;;;0.00;0.00;;;16.80;99.90;;;;;;4791799;30;20051;-90
2021/09/24 10:11:45;;;;;;;0.35;0.22;;;16.80;99.90;;;;;;4792361;30;20593;-95
2021/09/24 10:14:13;;;;;;;0.30;0.20;;;16.90;99.90;;;;;;4791900;30;20047;-96
2021/09/24 10:16:46;;;;;;;0.00;0.00;;;16.90;99.90;;;;;;4794466;30;20093;-94
2021/09/24 10:19:14;;;;;;;0.10;0.10;;;16.90;99.90;;;;;;4791314;30;20047;-93
2021/09/24 10:21:42;;;;;;;0.25;0.25;;;17.00;99.90;;;;;;4791761;30;20051;-94
2021/09/24 10:24:09;;;;;;;0.17;0.17;;;17.00;99.90;;;;;;4776513;30;20111;-92
2021/09/24 10:26:47;;;;;;;0.30;0.20;;;17.00;99.90;;;;;;4777024;30;20097;-92
2021/09/24 10:29:19;;;;;;;0.10;0.10;;;17.10;99.90;;;;;;4791869;30;20484;-95
2021/09/24 10:31:50;;;;;;;0.70;0.28;;;17.20;99.90;;;;;;4791552;30;20078;-94
2021/09/24 10:34:27;;;;;;;0.35;0.35;;;17.20;99.90;;;;;;4792904;30;20104;-93
2021/09/24 10:36:56;;;;;;;0.38;0.30;;;17.20;99.90;;;;;;4791132;30;20051;-93
2021/09/24 10:39:29;;;;;;;0.45;0.35;;;17.20;99.90;;;;;;4791210;30;20047;-94
2021/09/24 10:42:14;;;;;;;0.40;0.20;;;17.30;99.90;;;;;;4791090;30;20047;-96
2021/09/24 10:45:25;;;;;;;0.08;0.08;;;17.40;99.90;;;;;;4791451;30;20064;-91
2021/09/24 10:47:54;;;;;;;0.10;0.10;;;17.20;99.90;;;;;;4756158;30;20068;-90
2021/09/24 10:50:30;;;;;;;0.15;0.13;;;17.50;99.90;;;;;;4756021;30;20040;-90
2021/09/24 10:53:10;;;;;;;0.52;0.30;;;17.60;99.90;;;;;;4769804;30;20121;-89
2021/09/24 10:55:55;;;;;;;0.32;0.30;;;17.60;99.90;;;;;;4756191;30;20048;-90
2021/09/24 10:58:40;;;;;;;0.22;0.13;;;17.70;99.90;;;;;;4756219;30;20056;-90
2021/09/24 11:13:34;;;;;;;0.20;0.20;;;17.70;99.90;;;;;;6340997;22;1611199;-89
2021/09/24 11:16:05;;;;;;;0.10;0.10;;;17.90;99.90;;;;;;6307859;22;20022;-89
2021/09/24 11:18:54;;;;;;;0.20;0.20;;;18.00;99.90;;;;;;6283631;22;20407;-87
2021/09/24 11:21:25;;;;;;;0.68;0.32;;;18.00;99.90;;;;;;6332645;22;20116;-87
2021/09/24 11:23:54;;;;;;;0.47;0.22;;;18.10;99.90;;;;;;6282093;22;20439;-88
2021/09/24 11:26:30;;;;;;;0.52;0.38;;;18.10;99.90;;;;;;6307632;22;20015;-90
2021/09/24 11:29:11;;;;;;;0.08;0.05;;;18.20;99.90;;;;;;6290407;22;20030;-89
2021/09/24 11:31:53;;;;;;;0.17;0.17;;;18.20;99.90;;;;;;6277242;22;20026;-88
2021/09/24 11:34:46;;;;;;;0.15;0.10;;;18.20;99.90;;;;;;6276609;22;20012;-87
2021/09/24 11:37:22;;;;;;;1.20;0.40;;;18.30;99.90;;;;;;6276334;22;20022;-88
2021/09/24 11:40:03;;;;;;;0.98;0.38;;;18.50;99.90;;;;;;6276684;22;20031;-87
2021/09/24 11:42:32;;;;;;;0.35;0.25;;;18.60;99.90;;;;;;6277173;22;20043;-87
2021/09/24 11:45:00;;;;;;;0.45;0.28;;;18.80;99.90;;;;;;6276929;22;20091;-88
2021/09/24 11:47:31;;;;;;;1.75;0.63;;;18.80;99.90;;;;;;6276699;22;20007;-88
2021/09/24 11:50:09;;;;;;;0.20;0.20;;;18.90;99.90;;;;;;6276347;22;20015;-88
2021/09/24 11:52:55;;;;;;;0.98;0.52;;;19.00;99.90;;;;;;6276777;22;20019;-89
2021/09/24 11:55:33;;;;;;;0.52;0.35;;;19.10;99.90;;;;;;6250934;22;20321;-87
2021/09/24 11:58:14;;;;;;;0.40;0.22;;;19.20;99.90;;;;;;6275918;22;20466;-87
2021/09/24 12:00:46;;;;;;;0.60;0.40;;;19.30;99.90;;;;;;6275815;22;20145;-86
2021/09/24 12:03:23;;;;;;;1.13;0.55;;;19.30;99.90;;;;;;6300893;22;20018;-86
2021/09/24 12:05:54;;;;;;;0.30;0.30;;;19.20;99.90;;;;;;6276062;22;20015;-86
2021/09/24 12:08:26;;;;;;;0.47;0.35;;;19.20;99.90;;;;;;6275705;22;20042;-87
2021/09/24 12:11:24;;;;;;;0.70;0.47;;;19.20;99.90;;;;;;6275751;22;20007;-87
2021/09/24 12:13:58;;;;;;;0.65;0.47;;;19.20;99.90;;;;;;6268677;22;20015;-87
2021/09/24 12:16:28;;;;;;;0.25;0.10;;;19.20;99.90;;;;;;6268906;22;20094;-85
2021/09/24 12:19:05;;;;;;;1.15;0.30;;;19.30;99.90;;;;;;6294131;22;20050;-87
2021/09/24 12:21:52;;;;;;;0.40;0.30;;;19.40;99.90;;;;;;6269405;22;20095;-90
2021/09/24 12:24:29;;;;;;;0.60;0.40;;;19.50;99.90;;;;;;6269583;22;20012;-89
2021/09/24 12:27:02;;;;;;;0.17;0.15;;;19.60;99.90;;;;;;6269348;22;20310;-90
2021/09/24 12:29:29;;;;;;;0.52;0.40;;;19.60;99.90;;;;;;6268822;22;20008;-88
2021/09/24 12:31:58;;;;;;;0.43;0.40;;;19.50;99.90;;;;;;6270002;22;20016;-89
2021/09/24 12:34:38;;;;;;;0.55;0.35;;;19.50;99.90;;;;;;6244547;22;20051;-90
2021/09/24 12:37:12;;;;;;;;;;;19.50;99.90;;;;;;6270609;22;20022;-89
2021/09/24 12:39:41;;;;;;;0.70;0.47;;;19.50;99.90;;;;;;6269726;22;19911;-88
2021/09/24 12:42:13;;;;;;;0.88;0.40;;;19.50;99.90;;;;;;6269024;22;20432;-88
2021/09/24 12:44:58;;;;;;;0.43;0.35;;;19.60;99.90;;;;;;6269143;22;20017;-88
2021/09/24 12:47:27;;;;;;;0.98;0.43;;;19.70;99.90;;;;;;6269293;22;20090;-87
2021/09/24 12:49:55;;;;;;;0.32;0.30;;;19.70;99.90;;;;;;6268836;22;20018;-87
2021/09/24 12:52:24;;;;;;;0.70;0.40;;;19.60;99.90;;;;;;6268686;22;20094;-88
2021/09/24 12:54:51;;;;;;;1.25;0.50;;;19.60;99.90;;;;;;6244334;22;20019;-88
2021/09/24 12:57:18;;;;;;;4.75;0.50;;;19.50;99.90;;;;;;6268831;22;20058;-88
2021/09/24 12:59:50;;;;;;;0.70;0.45;;;19.50;99.90;;;;;;6244339;22;20012;-88
2021/09/24 13:02:18;;;;;;;0.45;0.30;;;19.60;99.90;;;;;;6268816;22;20054;-87
2021/09/24 13:04:46;;;;;;;1.45;0.60;;;19.60;99.90;;;;;;6269196;22;20011;-89
2021/09/24 13:07:18;;;;;;;0.65;0.50;;;19.70;99.90;;;;;;6268715;22;20008;-87
2021/09/24 13:09:45;;;;;;;0.65;0.40;;;19.80;99.90;;;;;;6268911;22;20007;-89
2021/09/24 13:12:13;;;;;;;0.43;0.30;;;19.70;99.90;;;;;;6268682;22;20016;-87
2021/09/24 13:14:41;;;;;;;0.30;0.28;;;19.80;99.90;;;;;;6268909;22;20019;-90
2021/09/24 13:17:08;;;;;;;0.55;0.43;;;19.80;99.90;;;;;;6243989;22;20022;-88
2021/09/24 13:19:35;;;;;;;0.95;0.47;;;19.80;99.90;;;;;;6268583;22;20012;-88
2021/09/24 13:22:04;;;;;;;1.48;0.63;;;19.80;99.90;;;;;;6219161;22;20011;-88
2021/09/24 13:24:31;;;;;;;0.30;0.30;;;19.90;99.90;;;;;;6267666;22;20314;-87
2021/09/24 13:26:58;;;;;;;0.80;0.60;;;19.90;99.90;;;;;;6243563;22;20094;-87
2021/09/24 13:29:25;;;;;;;0.30;0.30;;;19.90;99.90;;;;;;6268189;22;20008;-87
2021/09/24 13:31:53;;;;;;;0.28;0.20;;;19.90;99.90;;;;;;6268898;22;20098;-89
2021/09/24 13:34:20;;;;;;;4.10;0.60;;;20.00;99.90;;;;;;6268159;22;20090;-87
2021/09/24 13:36:47;;;;;;;0.55;0.43;;;20.00;99.90;;;;;;6244602;22;20081;-88
2021/09/24 13:39:14;;;;;;;0.30;0.28;;;19.90;99.90;;;;;;6243829;22;20023;-87
2021/09/24 13:41:41;;;;;;;0.52;0.40;;;19.90;99.90;;;;;;6243891;22;20012;-88
2021/09/24 13:44:07;;;;;;;0.38;0.30;;;19.90;99.90;;;;;;6244346;22;20012;-91
2021/09/24 13:46:34;;;;;;;0.43;0.32;;;19.80;99.90;;;;;;6269426;22;20019;-92
2021/09/24 13:49:02;;;;;;;0.65;0.47;;;19.70;99.90;;;;;;6269936;22;20095;-88
2021/09/24 13:51:28;;;;;;;0.55;0.45;;;19.70;99.90;;;;;;6269143;22;20340;-88
2021/09/24 13:53:55;;;;;;;1.42;0.45;;;19.80;99.90;;;;;;6244879;22;20022;-88
2021/09/24 13:56:22;;;;;;;0.98;0.60;;;19.80;99.90;;;;;;6244303;22;20344;-89
2021/09/24 13:58:49;;;;;;;1.38;0.73;;;19.90;99.90;;;;;;6243492;22;20071;-90
2021/09/24 14:01:17;;;;;;;0.95;0.40;;;20.10;99.90;;;;;;6244825;22;20011;-92
2021/09/24 14:03:43;;;;;;;0.75;0.40;;;20.20;99.90;;;;;;6244390;22;20058;-89
2021/09/24 14:06:10;;;;;;;1.40;0.50;;;20.30;99.90;;;;;;6245067;22;20332;-88
2021/09/24 14:08:37;;;;;;;0.80;0.35;;;20.40;99.90;;;;;;6245260;22;20047;-89
2021/09/24 14:11:04;;;;;;;0.43;0.30;;;20.50;99.90;;;;;;6245043;22;20105;-91
2021/09/24 14:13:32;;;;;;;0.65;0.28;;;20.50;99.90;;;;;;6294079;22;20012;-91
2021/09/24 14:15:59;;;;;;;1.25;0.32;;;20.50;99.90;;;;;;6269530;22;20073;-91
2021/09/24 14:18:26;;;;;;;0.30;0.25;;;20.50;99.90;;;;;;6269320;22;20458;-90
2021/09/24 14:20:53;;;;;;;0.75;0.43;;;20.50;99.90;;;;;;6219537;22;20011;-88
2021/09/24 14:23:20;;;;;;;0.47;0.32;;;20.50;99.90;;;;;;6243582;22;20447;-86
2021/09/24 14:25:47;;;;;;;0.57;0.40;;;20.40;99.90;;;;;;6244223;22;20061;-88
2021/09/24 14:28:13;;;;;;;0.45;0.40;;;20.40;99.90;;;;;;6243724;22;20011;-87
2021/09/24 14:30:40;;;;;;;0.47;0.20;;;20.30;99.90;;;;;;6243769;22;20012;-89
2021/09/24 14:33:08;;;;;;;0.52;0.20;;;20.40;99.90;;;;;;6269078;22;20094;-86
2021/09/24 14:35:35;;;;;;;0.38;0.28;;;20.30;99.90;;;;;;6292385;22;20354;-85
2021/09/24 14:38:02;;;;;;;0.55;0.45;;;20.20;99.90;;;;;;6267895;22;20008;-85
2021/09/24 14:40:28;;;;;;;0.45;0.30;;;20.20;99.90;;;;;;6242246;22;20146;-86
2021/09/24 14:42:55;;;;;;;0.68;0.30;;;20.30;99.90;;;;;;6268425;22;20016;-87
2021/09/24 14:45:22;;;;;;;0.57;0.40;;;20.20;99.90;;;;;;6269434;22;20008;-86
2021/09/24 14:47:49;;;;;;;0.50;0.50;;;20.30;99.90;;;;;;6244952;22;20019;-88
2021/09/24 14:50:16;;;;;;;0.30;0.20;;;20.30;99.90;;;;;;6247185;22;20008;-87
2021/09/24 14:52:50;;;;;;;0.40;0.30;;;20.30;99.90;;;;;;6269280;22;20015;-92
2021/09/24 14:55:17;;;;;;;1.50;0.70;;;20.30;99.90;;;;;;6270375;22;20039;-93
2021/09/24 14:57:44;;;;;;;0.30;0.30;;;20.40;99.90;;;;;;6270032;22;20022;-94
2021/09/24 15:00:11;;;;;;;0.68;0.50;;;20.40;99.90;;;;;;6269698;22;20050;-91
2021/09/24 15:02:38;;;;;;;0.65;0.40;;;20.40;99.90;;;;;;6243712;22;20020;-92
2021/09/24 15:05:05;;;;;;;0.52;0.40;;;20.40;99.90;;;;;;6269703;22;20011;-91
2021/09/24 15:07:34;;;;;;;0.60;0.40;;;20.30;99.90;;;;;;6269297;22;20012;-90
2021/09/24 15:10:04;;;;;;;0.93;0.30;;;20.30;99.90;;;;;;6269692;22;20012;-91
2021/09/24 15:12:31;;;;;;;0.50;0.40;;;20.30;99.90;;;;;;6269228;22;20023;-92
2021/09/24 15:14:58;;;;;;;0.30;0.30;;;20.20;99.90;;;;;;6247663;23;20345;-91
2021/09/24 15:17:24;;;;;;;0.25;0.25;;;20.20;99.90;;;;;;6239297;23;20043;-91
2021/09/24 15:19:51;;;;;;;0.52;0.32;;;20.10;99.90;;;;;;6239179;23;20016;-91
2021/09/24 15:22:18;;;;;;;0.95;0.52;;;20.10;99.90;;;;;;6215472;23;20012;-91
2021/09/24 15:24:49;;;;;;;0.65;0.47;;;20.00;99.90;;;;;;6217705;23;20008;-91
2021/09/24 15:27:17;;;;;;;0.20;0.20;;;20.00;99.90;;;;;;6243314;23;20048;-91
2021/09/24 15:29:45;;;;;;;0.30;0.28;;;20.00;99.90;;;;;;6241980;23;20012;-91
2021/09/24 15:32:12;;;;;;;0.43;0.32;;;19.90;99.90;;;;;;6242229;23;20070;-90
2021/09/24 15:34:39;;;;;;;0.65;0.38;;;19.90;99.90;;;;;;6244149;23;20384;-91
2021/09/24 15:37:08;;;;;;;0.63;0.50;;;19.80;99.90;;;;;;6219719;23;20022;-91
2021/09/24 15:39:35;;;;;;;0.73;0.30;;;19.80;99.90;;;;;;6219547;23;20096;-90
2021/09/24 15:42:02;;;;;;;0.20;0.20;;;19.80;99.90;;;;;;6219098;23;20012;-91